createdAt,value
2017-12-03T00:01:51.808Z,3.40
2017-12-03T00:04:20.054Z,3.30
2017-12-03T00:06:48.546Z,3.30
2017-12-03T00:09:17.549Z,3.40
2017-12-03T00:11:45.797Z,3.40
2017-12-03T00:14:18.014Z,3.30
2017-12-03T00:16:46.266Z,3.30
2017-12-03T00:19:14.518Z,3.20
2017-12-03T00:21:43.834Z,3.30
2017-12-03T00:24:12.845Z,3.20
2017-12-03T00:26:41.093Z,3.20
2017-12-03T00:29:10.130Z,3.30
2017-12-03T00:31:38.374Z,3.20
2017-12-03T00:34:06.624Z,3.30
2017-12-03T00:36:34.894Z,3.30
2017-12-03T00:39:03.149Z,3.30
2017-12-03T00:41:31.389Z,3.30
2017-12-03T00:43:59.858Z,3.20
2017-12-03T00:46:28.106Z,3.10
2017-12-03T00:48:56.350Z,3.10
2017-12-03T00:51:24.915Z,2.80
2017-12-03T00:53:53.162Z,2.60
2017-12-03T00:56:21.410Z,2.50
2017-12-03T00:58:49.686Z,2.60
2017-12-03T01:01:17.940Z,2.50
2017-12-03T01:03:46.186Z,2.60
2017-12-03T01:06:14.631Z,2.70
2017-12-03T01:08:42.864Z,2.70
2017-12-03T01:11:11.114Z,2.80
2017-12-03T01:13:39.384Z,2.90
2017-12-03T01:16:08.398Z,3.10
2017-12-03T01:18:36.653Z,3.00
2017-12-03T01:21:04.926Z,3.00
2017-12-03T01:23:33.942Z,2.70
2017-12-03T01:26:02.190Z,2.70
2017-12-03T01:28:32.155Z,2.50
2017-12-03T01:31:00.403Z,2.50
2017-12-03T01:33:28.648Z,2.50
2017-12-03T01:35:56.924Z,2.40
2017-12-03T01:38:25.162Z,2.40
2017-12-03T01:40:53.426Z,2.50
2017-12-03T01:43:21.773Z,2.60
2017-12-03T01:45:51.958Z,2.70
2017-12-03T01:48:20.197Z,2.70
2017-12-03T01:50:48.797Z,2.90
2017-12-03T01:53:17.441Z,3.00
2017-12-03T01:55:46.456Z,2.90
2017-12-03T01:58:14.718Z,2.90
2017-12-03T02:00:42.974Z,2.90
2017-12-03T02:03:11.226Z,2.90
2017-12-03T02:05:39.490Z,2.80
2017-12-03T02:08:08.506Z,2.80
2017-12-03T02:10:36.750Z,2.80
2017-12-03T02:13:05.451Z,2.90
2017-12-03T02:15:33.682Z,3.00
2017-12-03T02:18:01.926Z,3.10
2017-12-03T02:20:30.190Z,3.20
2017-12-03T02:22:58.430Z,3.20
2017-12-03T02:25:26.684Z,3.30
2017-12-03T02:27:55.718Z,3.10
2017-12-03T02:30:23.962Z,3.10
2017-12-03T02:32:52.208Z,3.00
2017-12-03T02:35:20.706Z,3.10
2017-12-03T02:37:48.958Z,3.20
2017-12-03T02:40:17.202Z,3.10
2017-12-03T02:42:45.476Z,3.00
2017-12-03T02:45:13.726Z,3.10
2017-12-03T02:47:42.734Z,3.20
2017-12-03T02:50:11.002Z,3.20
2017-12-03T02:52:39.241Z,3.20
2017-12-03T02:55:07.606Z,3.00
2017-12-03T02:57:35.958Z,3.00
2017-12-03T03:00:04.203Z,3.00
2017-12-03T03:02:32.442Z,3.10
2017-12-03T03:05:00.718Z,3.20
2017-12-03T03:07:28.967Z,3.20
2017-12-03T03:09:57.213Z,3.30
2017-12-03T03:12:25.478Z,3.20
2017-12-03T03:14:53.726Z,3.10
2017-12-03T03:17:21.965Z,3.10
2017-12-03T03:19:50.762Z,3.00
2017-12-03T03:22:19.018Z,3.10
2017-12-03T03:24:47.268Z,3.10
2017-12-03T03:27:16.813Z,2.90
2017-12-03T03:29:45.057Z,2.90
2017-12-03T03:32:13.302Z,2.90
2017-12-03T03:34:41.574Z,3.00
2017-12-03T03:37:09.818Z,3.00
2017-12-03T03:39:38.062Z,3.00
2017-12-03T03:42:07.402Z,3.00
2017-12-03T03:44:35.661Z,3.00
2017-12-03T03:47:03.910Z,3.00
2017-12-03T03:49:32.956Z,3.00
2017-12-03T03:52:01.202Z,3.00
2017-12-03T03:54:29.454Z,3.20
2017-12-03T03:56:57.966Z,3.10
2017-12-03T03:59:26.205Z,3.20
2017-12-03T04:01:54.460Z,3.10
2017-12-03T04:04:23.131Z,3.10
2017-12-03T04:06:52.242Z,3.10
2017-12-03T04:09:20.502Z,2.90
2017-12-03T04:11:48.770Z,2.80
2017-12-03T04:14:17.202Z,2.90
2017-12-03T04:16:46.214Z,2.90
2017-12-03T04:19:14.486Z,2.90
2017-12-03T04:21:42.734Z,3.00
2017-12-03T04:24:10.973Z,3.00
2017-12-03T04:26:39.773Z,3.00
2017-12-03T04:29:08.014Z,3.00
2017-12-03T04:31:36.265Z,3.00
2017-12-03T04:34:04.542Z,2.90
2017-12-03T04:36:33.574Z,3.00
2017-12-03T04:39:01.818Z,2.90
2017-12-03T04:41:30.089Z,2.90
2017-12-03T04:43:58.331Z,2.90
2017-12-03T04:46:26.575Z,2.90
2017-12-03T04:48:55.137Z,2.80
2017-12-03T04:51:24.150Z,2.80
2017-12-03T04:53:52.398Z,2.80
2017-12-03T04:56:20.662Z,2.70
2017-12-03T04:58:49.265Z,2.70
2017-12-03T05:01:18.278Z,2.70
2017-12-03T05:03:46.553Z,2.70
2017-12-03T05:06:14.814Z,2.70
2017-12-03T05:08:43.826Z,2.70
2017-12-03T05:11:12.430Z,2.70
2017-12-03T05:13:40.673Z,2.60
2017-12-03T05:16:08.915Z,2.60
2017-12-03T05:18:37.197Z,2.60
2017-12-03T05:21:05.441Z,2.40
2017-12-03T05:23:33.691Z,2.50
2017-12-03T05:26:01.966Z,2.50
2017-12-03T05:28:30.218Z,2.50
2017-12-03T05:30:59.227Z,2.40
2017-12-03T05:33:27.676Z,2.40
2017-12-03T05:35:57.421Z,2.50
2017-12-03T05:38:25.670Z,2.50
2017-12-03T05:40:53.942Z,2.50
2017-12-03T05:43:22.183Z,2.40
2017-12-03T05:45:50.437Z,2.30
2017-12-03T05:48:19.046Z,2.20
2017-12-03T05:50:47.294Z,2.00
2017-12-03T05:53:15.534Z,2.00
2017-12-03T05:55:44.177Z,2.20
2017-12-03T05:58:12.417Z,2.40
2017-12-03T06:00:40.998Z,2.50
2017-12-03T06:03:09.274Z,2.40
2017-12-03T06:05:38.290Z,2.40
2017-12-03T06:08:06.546Z,2.30
2017-12-03T06:10:34.810Z,2.40
2017-12-03T06:13:03.054Z,2.40
2017-12-03T06:15:31.437Z,2.40
2017-12-03T06:17:59.851Z,2.40
2017-12-03T06:20:28.863Z,2.30
2017-12-03T06:22:57.122Z,2.30
2017-12-03T06:25:25.387Z,2.30
2017-12-03T06:27:53.632Z,2.30
2017-12-03T06:30:21.869Z,2.20
2017-12-03T06:32:50.139Z,2.20
2017-12-03T06:35:18.381Z,2.20
2017-12-03T06:37:46.629Z,2.20
2017-12-03T06:40:15.309Z,2.10
2017-12-03T06:42:43.550Z,2.20
2017-12-03T06:45:11.798Z,2.20
2017-12-03T06:47:40.070Z,2.30
2017-12-03T06:50:08.319Z,2.30
2017-12-03T06:52:36.578Z,2.30
2017-12-03T06:55:04.854Z,2.30
2017-12-03T06:57:33.114Z,2.30
2017-12-03T07:00:01.354Z,2.40
2017-12-03T07:02:30.422Z,2.40
2017-12-03T07:04:58.674Z,2.30
2017-12-03T07:07:26.910Z,2.30
2017-12-03T07:09:55.182Z,2.40
2017-12-03T07:12:23.427Z,2.40
2017-12-03T07:14:51.682Z,2.40
2017-12-03T07:17:19.958Z,2.40
2017-12-03T07:19:48.206Z,2.30
2017-12-03T07:22:17.214Z,2.50
2017-12-03T07:24:45.834Z,2.50
2017-12-03T07:27:14.092Z,2.60
2017-12-03T07:29:42.333Z,2.60
2017-12-03T07:32:11.370Z,2.50
2017-12-03T07:34:39.613Z,2.50
2017-12-03T07:37:08.634Z,2.50
2017-12-03T07:39:36.905Z,2.50
2017-12-03T07:42:05.157Z,2.50
2017-12-03T07:44:35.136Z,2.40
2017-12-03T07:47:04.305Z,2.60
2017-12-03T07:49:32.542Z,2.60
2017-12-03T07:52:00.788Z,2.60
2017-12-03T07:54:29.060Z,2.50
2017-12-03T07:56:57.304Z,2.60
2017-12-03T07:59:25.553Z,2.50
2017-12-03T08:01:54.590Z,2.60
2017-12-03T08:04:23.553Z,2.60
2017-12-03T08:06:51.915Z,2.60
2017-12-03T08:09:21.022Z,2.50
2017-12-03T08:11:49.270Z,2.50
2017-12-03T08:14:17.514Z,2.60
2017-12-03T08:16:45.794Z,2.60
2017-12-03T08:19:14.097Z,2.60
2017-12-03T08:21:42.342Z,2.60
2017-12-03T08:24:10.886Z,2.60
2017-12-03T08:26:39.913Z,2.70
2017-12-03T08:29:08.187Z,2.70
2017-12-03T08:31:36.685Z,2.70
2017-12-03T08:34:04.937Z,2.60
2017-12-03T08:36:33.187Z,2.50
2017-12-03T08:39:01.463Z,2.50
2017-12-03T08:41:30.503Z,2.60
2017-12-03T08:43:58.745Z,2.60
2017-12-03T08:46:27.006Z,2.60
2017-12-03T08:48:56.182Z,2.60
2017-12-03T08:51:24.427Z,2.60
2017-12-03T08:53:52.869Z,2.50
2017-12-03T08:56:21.118Z,2.50
2017-12-03T08:58:49.374Z,2.30
2017-12-03T09:01:17.642Z,2.50
2017-12-03T09:03:45.890Z,2.20
2017-12-03T09:06:18.549Z,2.20
2017-12-03T09:08:47.575Z,2.40
2017-12-03T09:11:15.817Z,2.50
2017-12-03T09:13:44.223Z,2.50
2017-12-03T09:16:12.495Z,2.50
2017-12-03T09:18:40.742Z,2.40
2017-12-03T09:21:09.005Z,2.40
2017-12-03T09:23:38.774Z,2.40
2017-12-03T09:26:07.021Z,2.40
2017-12-03T09:28:35.285Z,2.40
2017-12-03T09:31:03.535Z,2.50
2017-12-03T09:33:31.778Z,2.50
2017-12-03T09:36:00.377Z,2.60
2017-12-03T09:38:28.631Z,2.60
2017-12-03T09:40:56.882Z,2.40
2017-12-03T09:43:25.193Z,2.60
2017-12-03T09:45:53.440Z,2.60
2017-12-03T09:48:21.689Z,2.50
2017-12-03T09:50:49.954Z,2.60
2017-12-03T09:53:18.202Z,2.70
2017-12-03T09:55:46.438Z,2.60
2017-12-03T09:58:15.850Z,2.50
2017-12-03T10:00:44.853Z,2.60
2017-12-03T10:03:13.102Z,2.50
2017-12-03T10:05:41.379Z,2.50
2017-12-03T10:08:09.906Z,2.40
2017-12-03T10:10:38.154Z,2.30
2017-12-03T10:13:06.423Z,2.30
2017-12-03T10:15:34.677Z,2.50
2017-12-03T10:18:02.926Z,2.50
2017-12-03T10:20:31.242Z,2.40
2017-12-03T10:22:59.499Z,2.30
2017-12-03T10:25:27.738Z,2.40
2017-12-03T10:27:56.013Z,2.50
2017-12-03T10:30:24.262Z,2.60
2017-12-03T10:32:52.510Z,2.60
2017-12-03T10:35:20.797Z,2.60
2017-12-03T10:38:00.834Z,2.60
2017-12-03T10:40:29.606Z,2.70
2017-12-03T10:42:57.849Z,2.60
2017-12-03T10:45:26.094Z,2.70
2017-12-03T10:47:54.363Z,2.70
2017-12-03T10:50:22.610Z,2.60
2017-12-03T10:52:50.870Z,2.70
2017-12-03T10:55:19.141Z,2.80
2017-12-03T10:57:47.386Z,2.90
2017-12-03T11:00:15.780Z,3.00
2017-12-03T11:02:44.430Z,3.00
2017-12-03T11:05:12.689Z,3.10
2017-12-03T11:07:40.929Z,3.10
2017-12-03T11:10:10.274Z,3.20
2017-12-03T11:12:38.512Z,3.20
2017-12-03T11:15:06.758Z,3.30
2017-12-03T11:17:35.046Z,3.40
2017-12-03T11:20:03.294Z,3.40
2017-12-03T11:22:31.559Z,3.40
2017-12-03T11:25:00.049Z,3.40
2017-12-03T11:27:28.432Z,3.30
2017-12-03T11:29:56.670Z,3.30
2017-12-03T11:32:24.942Z,3.20
2017-12-03T11:34:53.185Z,3.30
2017-12-03T11:37:21.439Z,3.40
2017-12-03T11:39:49.707Z,3.50
2017-12-03T11:42:17.957Z,3.40
2017-12-03T11:44:46.210Z,3.40
2017-12-03T11:47:14.866Z,3.30
2017-12-03T11:49:43.878Z,3.30
2017-12-03T11:52:12.891Z,3.30
2017-12-03T11:54:41.166Z,3.30
2017-12-03T11:57:09.418Z,3.30
2017-12-03T11:59:38.430Z,3.30
2017-12-03T12:02:06.698Z,3.30
2017-12-03T12:04:34.961Z,3.30
2017-12-03T12:07:03.226Z,3.40
2017-12-03T12:09:31.869Z,3.40
2017-12-03T12:12:00.122Z,3.40
2017-12-03T12:14:28.373Z,3.40
2017-12-03T12:16:57.637Z,3.10
2017-12-03T12:19:25.882Z,3.10
2017-12-03T12:21:54.126Z,3.00
2017-12-03T12:24:22.410Z,3.20
2017-12-03T12:26:51.438Z,3.30
2017-12-03T12:29:19.701Z,3.40
2017-12-03T12:31:48.026Z,3.40
2017-12-03T12:34:16.306Z,3.30
2017-12-03T12:36:44.549Z,3.30
2017-12-03T12:39:12.987Z,3.30
2017-12-03T12:41:41.994Z,3.40
2017-12-03T12:44:11.018Z,3.30
2017-12-03T12:46:39.291Z,3.30
2017-12-03T12:49:07.544Z,3.30
2017-12-03T12:51:35.802Z,3.40
2017-12-03T12:54:05.394Z,3.30
2017-12-03T12:56:36.840Z,3.20
2017-12-03T12:59:05.082Z,3.20
2017-12-03T13:01:33.362Z,3.20
2017-12-03T13:04:01.690Z,3.20
2017-12-03T13:06:29.935Z,3.10
2017-12-03T13:08:58.246Z,3.00
2017-12-03T13:11:26.486Z,2.90
2017-12-03T13:13:54.884Z,2.80
2017-12-03T13:16:23.342Z,2.80
2017-12-03T13:18:51.631Z,2.80
2017-12-03T13:21:19.865Z,2.80
2017-12-03T13:23:48.141Z,3.00
2017-12-03T13:26:16.386Z,3.10
2017-12-03T13:28:44.638Z,3.00
2017-12-03T13:31:16.945Z,3.00
2017-12-03T13:33:46.018Z,3.20
2017-12-03T13:36:15.211Z,3.20
2017-12-03T13:38:43.966Z,3.10
2017-12-03T13:41:12.233Z,3.00
2017-12-03T13:43:40.662Z,3.00
2017-12-03T13:46:08.942Z,3.10
2017-12-03T13:48:37.410Z,3.20
2017-12-03T13:51:05.676Z,3.20
2017-12-03T13:53:34.256Z,3.20
2017-12-03T13:56:02.550Z,3.20
2017-12-03T13:58:30.822Z,3.20
2017-12-03T14:00:59.150Z,3.20
2017-12-03T14:03:27.522Z,3.20
2017-12-03T14:05:55.769Z,3.10
2017-12-03T14:08:24.066Z,3.20
2017-12-03T14:10:52.545Z,3.20
2017-12-03T14:13:21.604Z,3.20
2017-12-03T14:15:49.875Z,3.10
2017-12-03T14:18:18.294Z,3.10
2017-12-03T14:20:47.355Z,3.10
2017-12-03T14:23:15.683Z,3.00
2017-12-03T14:25:43.949Z,3.00
2017-12-03T14:28:12.190Z,2.80
2017-12-03T14:30:40.465Z,2.80
2017-12-03T14:33:08.710Z,2.70
2017-12-03T14:35:36.975Z,2.80
2017-12-03T14:38:05.242Z,2.80
2017-12-03T14:40:33.491Z,2.90
2017-12-03T14:43:01.739Z,2.90
2017-12-03T14:45:30.153Z,3.00
2017-12-03T14:47:59.174Z,2.90
2017-12-03T14:50:27.430Z,2.90
2017-12-03T14:52:55.769Z,2.90
2017-12-03T14:55:30.112Z,2.90
2017-12-03T14:57:58.377Z,2.80
2017-12-03T15:00:26.744Z,2.80
2017-12-03T15:02:54.983Z,2.80
2017-12-03T15:05:23.404Z,2.90
2017-12-03T15:07:51.641Z,3.00
2017-12-03T15:10:20.374Z,3.10
2017-12-03T15:12:48.695Z,3.00
2017-12-03T15:15:17.326Z,3.00
2017-12-03T15:17:45.562Z,2.80
2017-12-03T15:20:16.016Z,2.70
2017-12-03T15:22:44.610Z,2.60
2017-12-03T15:25:13.106Z,2.60
2017-12-03T15:27:43.908Z,2.50
2017-12-03T15:30:12.330Z,2.70
2017-12-03T15:32:45.690Z,2.80
2017-12-03T15:35:13.946Z,2.80
2017-12-03T15:37:42.238Z,2.60
2017-12-03T15:40:10.510Z,2.50
2017-12-03T15:42:39.764Z,2.70
2017-12-03T15:45:08.015Z,2.80
2017-12-03T15:47:37.509Z,3.00
2017-12-03T15:50:05.820Z,3.00
2017-12-03T15:52:34.202Z,2.90
2017-12-03T15:55:02.482Z,3.00
2017-12-03T15:57:31.007Z,3.00
2017-12-03T16:00:00.012Z,3.10
2017-12-03T16:02:28.306Z,3.00
2017-12-03T16:04:56.695Z,2.70
2017-12-03T16:07:25.083Z,2.60
2017-12-03T16:09:53.417Z,2.80
2017-12-03T16:12:21.696Z,2.90
2017-12-03T16:14:49.948Z,2.80
2017-12-03T16:17:18.321Z,2.90
2017-12-03T16:19:47.338Z,2.80
2017-12-03T16:22:15.590Z,2.80
2017-12-03T16:24:43.933Z,2.90
2017-12-03T16:27:12.161Z,2.70
2017-12-03T16:29:40.515Z,2.50
2017-12-03T16:32:09.986Z,2.70
2017-12-03T16:34:38.249Z,2.70
2017-12-03T16:37:07.474Z,2.60
2017-12-03T16:39:35.878Z,2.70
2017-12-03T16:42:06.071Z,2.80
2017-12-03T16:44:34.318Z,2.80
2017-12-03T16:47:02.926Z,2.90
2017-12-03T16:49:31.257Z,2.70
2017-12-03T16:52:00.261Z,2.90
2017-12-03T16:54:28.662Z,2.90
2017-12-03T16:56:56.918Z,2.90
2017-12-03T16:59:25.237Z,2.90
2017-12-03T17:01:53.491Z,2.80
2017-12-03T17:04:22.778Z,2.80
2017-12-03T17:06:52.094Z,2.80
2017-12-03T17:09:20.460Z,2.90
2017-12-03T17:11:48.774Z,2.90
2017-12-03T17:14:18.086Z,2.90
2017-12-03T17:16:47.473Z,2.90
2017-12-03T17:19:15.757Z,2.90
2017-12-03T17:21:44.138Z,2.90
2017-12-03T17:24:13.476Z,2.80
2017-12-03T17:26:45.819Z,2.70
2017-12-03T17:29:14.217Z,2.60
2017-12-03T17:31:43.240Z,2.50
2017-12-03T17:34:14.046Z,2.50
2017-12-03T17:36:43.196Z,2.80
2017-12-03T17:39:13.552Z,2.80
2017-12-03T17:41:41.950Z,2.60
2017-12-03T17:44:10.634Z,2.70
2017-12-03T17:46:39.830Z,2.70
2017-12-03T17:49:08.086Z,2.70
2017-12-03T17:51:36.360Z,2.70
2017-12-03T17:54:04.606Z,2.80
2017-12-03T17:56:34.144Z,2.90
2017-12-03T17:59:04.042Z,2.80
2017-12-03T18:01:34.174Z,2.70
2017-12-03T18:04:02.554Z,2.60
2017-12-03T18:06:30.981Z,2.70
2017-12-03T18:08:59.240Z,2.70
2017-12-03T18:11:27.698Z,2.70
2017-12-03T18:14:00.532Z,2.80
2017-12-03T18:16:29.982Z,2.90
2017-12-03T18:18:58.542Z,2.80
2017-12-03T18:21:27.304Z,2.70
2017-12-03T18:23:55.733Z,2.70
2017-12-03T18:26:25.038Z,2.80
2017-12-03T18:28:53.334Z,2.80
2017-12-03T18:31:21.820Z,2.60
2017-12-03T18:33:50.826Z,2.70
2017-12-03T18:36:19.874Z,2.60
2017-12-03T18:38:48.126Z,2.60
2017-12-03T18:41:16.550Z,2.50
2017-12-03T18:43:44.903Z,2.60
2017-12-03T18:46:13.139Z,2.60
2017-12-03T18:48:41.395Z,2.60
2017-12-03T18:51:10.703Z,2.50
2017-12-03T18:53:39.713Z,2.60
2017-12-03T18:56:08.046Z,2.60
2017-12-03T18:58:36.478Z,2.60
2017-12-03T19:01:04.725Z,2.80
2017-12-03T19:03:32.985Z,2.90
2017-12-03T19:06:01.395Z,2.90
2017-12-03T19:08:31.040Z,2.90
2017-12-03T19:10:59.290Z,2.90
2017-12-03T19:13:27.569Z,2.90
2017-12-03T19:15:55.818Z,2.80
2017-12-03T19:18:24.870Z,2.80
2017-12-03T19:20:53.146Z,2.80
2017-12-03T19:23:21.393Z,2.90
2017-12-03T19:25:49.821Z,3.00
2017-12-03T19:28:18.294Z,3.10
2017-12-03T19:30:46.579Z,3.10
2017-12-03T19:33:15.770Z,2.90
2017-12-03T19:35:45.226Z,2.90
2017-12-03T19:38:15.410Z,3.00
2017-12-03T19:40:43.787Z,3.00
2017-12-03T19:43:12.201Z,2.90
2017-12-03T19:45:40.458Z,2.90
2017-12-03T19:48:08.713Z,2.90
2017-12-03T19:50:37.370Z,3.00
2017-12-03T19:53:05.618Z,3.10
2017-12-03T19:55:34.058Z,3.10
2017-12-03T19:58:02.831Z,3.10
2017-12-03T20:00:32.045Z,3.00
2017-12-03T20:03:00.618Z,3.00
2017-12-03T20:05:29.134Z,3.00
2017-12-03T20:07:58.159Z,3.10
2017-12-03T20:10:29.563Z,3.10
2017-12-03T20:12:58.024Z,3.00
2017-12-03T20:15:26.313Z,3.00
2017-12-03T20:17:54.578Z,3.00
2017-12-03T20:20:23.615Z,3.00
2017-12-03T20:22:52.213Z,3.00
2017-12-03T20:25:20.464Z,3.00
2017-12-03T20:27:48.726Z,3.00
2017-12-03T20:30:18.494Z,3.10
2017-12-03T20:32:46.810Z,3.00
2017-12-03T20:35:15.262Z,3.00
2017-12-03T20:37:43.515Z,3.00
2017-12-03T20:40:11.950Z,3.10
2017-12-03T20:42:40.222Z,3.10
2017-12-03T20:45:08.473Z,3.10
2017-12-03T20:47:36.777Z,3.10
2017-12-03T20:50:05.058Z,3.10
2017-12-03T20:52:33.306Z,3.10
2017-12-03T20:55:01.562Z,3.20
2017-12-03T20:57:30.170Z,3.10
2017-12-03T20:59:59.608Z,3.00
2017-12-03T21:02:27.849Z,3.10
2017-12-03T21:04:56.132Z,3.10
2017-12-03T21:07:24.372Z,3.10
2017-12-03T21:09:52.613Z,3.20
2017-12-03T21:12:20.890Z,3.20
2017-12-03T21:14:49.130Z,3.20
2017-12-03T21:17:18.559Z,3.20
2017-12-03T21:19:46.914Z,3.20
2017-12-03T21:22:15.450Z,3.20
2017-12-03T21:24:43.697Z,3.10
2017-12-03T21:27:11.970Z,3.10
2017-12-03T21:29:40.234Z,3.10
2017-12-03T21:32:08.470Z,3.10
2017-12-03T21:34:36.738Z,3.10
2017-12-03T21:37:05.750Z,3.10
2017-12-03T21:39:33.998Z,3.10
2017-12-03T21:42:03.170Z,3.20
2017-12-03T21:44:31.413Z,3.20
2017-12-03T21:46:59.662Z,3.10
2017-12-03T21:49:28.122Z,3.30
2017-12-03T21:51:57.134Z,3.40
2017-12-03T21:54:25.387Z,3.40
2017-12-03T21:56:53.657Z,3.40
2017-12-03T21:59:21.902Z,3.40
2017-12-03T22:01:50.158Z,3.30
2017-12-03T22:04:18.605Z,3.30
2017-12-03T22:06:46.858Z,3.30
2017-12-03T22:09:15.102Z,3.30
2017-12-03T22:11:43.370Z,3.30
2017-12-03T22:14:11.622Z,3.20
2017-12-03T22:16:40.638Z,3.20
2017-12-03T22:19:08.945Z,3.20
2017-12-03T22:21:37.179Z,3.10
2017-12-03T22:24:05.746Z,3.20
2017-12-03T22:26:35.214Z,3.30
2017-12-03T22:29:03.462Z,3.30
2017-12-03T22:31:31.707Z,3.30
2017-12-03T22:33:59.978Z,3.40
2017-12-03T22:36:28.230Z,3.40
2017-12-03T22:38:57.525Z,3.40
2017-12-03T22:41:25.795Z,3.30
2017-12-03T22:43:54.048Z,3.40
2017-12-03T22:46:22.290Z,3.40
2017-12-03T22:48:50.763Z,3.30
2017-12-03T22:51:19.770Z,3.40
2017-12-03T22:53:48.781Z,3.40
2017-12-03T22:56:17.060Z,3.40
2017-12-03T22:58:45.308Z,3.40
2017-12-03T23:01:14.321Z,3.40
2017-12-03T23:03:42.587Z,3.40
2017-12-03T23:06:11.602Z,3.30
2017-12-03T23:08:39.847Z,3.30
2017-12-03T23:11:08.375Z,3.30
2017-12-03T23:13:36.617Z,3.30
2017-12-03T23:16:05.057Z,3.30
2017-12-03T23:18:33.328Z,3.20
2017-12-03T23:21:01.567Z,3.20
2017-12-03T23:23:29.816Z,3.20
2017-12-03T23:25:58.318Z,3.20
2017-12-03T23:28:27.447Z,3.30
2017-12-03T23:30:55.682Z,3.30
2017-12-03T23:33:24.891Z,3.20
2017-12-03T23:35:53.138Z,3.20
2017-12-03T23:38:21.380Z,3.20
2017-12-03T23:40:49.656Z,3.20
2017-12-03T23:43:17.897Z,3.20
2017-12-03T23:45:46.150Z,3.30
2017-12-03T23:48:15.177Z,3.50
2017-12-03T23:50:43.422Z,3.40
2017-12-03T23:53:11.662Z,3.40
2017-12-03T23:55:40.121Z,3.40
2017-12-03T23:58:08.358Z,3.40
